createdAt,value
2023-04-20T00:00:39.273Z,12.31
2023-04-20T00:05:39.871Z,12.33
2023-04-20T00:10:38.146Z,12.33
2023-04-20T00:15:37.571Z,12.32
2023-04-20T00:20:47.094Z,12.32
2023-04-20T00:25:36.923Z,12.32
2023-04-20T00:30:46.111Z,12.3
2023-04-20T00:35:46.138Z,12.32
2023-04-20T00:40:46.639Z,12.32
2023-04-20T00:45:44.304Z,12.31
2023-04-20T00:50:43.514Z,12.31
2023-04-20T00:55:43.694Z,12.31
2023-04-20T01:00:42.730Z,12.29
2023-04-20T01:11:27.978Z,12.29
2023-04-20T01:30:31.249Z,12.31
2023-04-20T01:45:29.580Z,12.31
2023-04-20T02:00:28.039Z,12.3
2023-04-20T02:05:29.709Z,12.3
2023-04-20T02:12:39.096Z,12.3
2023-04-20T02:15:25.363Z,12.3
2023-04-20T02:20:24.360Z,12.3
2023-04-20T02:25:24.541Z,12.3
2023-04-20T02:30:23.958Z,12.3
2023-04-20T02:35:23.702Z,12.29
2023-04-20T02:40:22.872Z,12.29
2023-04-20T02:45:21.819Z,12.29
2023-04-20T02:50:24.928Z,12.29
2023-04-20T02:55:19.420Z,12.29
2023-04-20T03:00:19.202Z,12.29
2023-04-20T03:02:05.866Z,12.26
2023-04-20T03:06:40.593Z,12.28
2023-04-20T03:11:38.393Z,12.25
2023-04-20T03:16:38.442Z,12.27
2023-04-20T03:21:38.186Z,12.26
2023-04-20T03:26:38.819Z,12.26
2023-04-20T03:31:47.812Z,12.26
2023-04-20T03:36:47.259Z,12.26
2023-04-20T03:41:47.648Z,12.25
2023-04-20T03:46:48.371Z,12.26
2023-04-20T03:51:45.386Z,12.24
2023-04-20T03:56:45.017Z,12.25
2023-04-20T04:00:58.315Z,12.23
2023-04-20T04:05:59.262Z,12.26
2023-04-20T04:10:59.352Z,12.26
2023-04-20T04:15:57.894Z,12.26
2023-04-20T04:20:59.297Z,12.26
2023-04-20T04:25:55.863Z,12.26
2023-04-20T04:30:56.476Z,12.23
2023-04-20T04:35:55.256Z,12.25
2023-04-20T04:40:56.232Z,12.25
2023-04-20T04:45:54.739Z,12.25
2023-04-20T04:50:53.954Z,12.25
2023-04-20T04:55:53.084Z,12.25
2023-04-20T05:00:39.626Z,12.22
2023-04-20T05:05:49.408Z,12.25
2023-04-20T05:10:46.791Z,12.25
2023-04-20T05:15:46.316Z,12.26
2023-04-20T05:20:45.498Z,12.26
2023-04-20T05:25:45.553Z,12.26
2023-04-20T05:31:01.995Z,12.24
2023-04-20T05:35:42.658Z,12.27
2023-04-20T05:40:42.759Z,12.28
2023-04-20T05:45:42.819Z,12.28
2023-04-20T05:50:31.840Z,12.3
2023-04-20T05:55:30.249Z,12.31
2023-04-20T06:25:28.653Z,12.37
2023-04-20T06:30:30.266Z,12.39
2023-04-20T06:40:27.310Z,12.42
2023-04-20T06:45:26.833Z,12.44
2023-04-20T06:50:26.521Z,12.49
2023-04-20T07:00:24.951Z,12.52
2023-04-20T07:02:11.904Z,12.49
2023-04-20T07:06:46.703Z,12.53
2023-04-20T07:11:43.656Z,12.54
2023-04-20T07:16:44.035Z,12.58
2023-04-20T07:21:43.662Z,12.59
2023-04-20T07:26:43.408Z,12.63
2023-04-20T07:31:41.074Z,12.72
2023-04-20T07:36:40.671Z,13.51
2023-04-20T07:41:40.764Z,13.6
2023-04-20T07:46:41.500Z,13.61
2023-04-20T07:51:41.216Z,13.51
2023-04-20T07:56:43.598Z,13.68
2023-04-20T08:00:46.186Z,13.62
2023-04-20T08:05:47.837Z,13.68
2023-04-20T08:10:48.438Z,13.83
2023-04-20T08:15:44.720Z,13.11
2023-04-20T08:20:45.093Z,13.09
2023-04-20T08:25:46.195Z,13.07
2023-04-20T08:30:45.544Z,13.43
2023-04-20T08:35:41.287Z,13.52
2023-04-20T08:40:41.466Z,13.07
2023-04-20T08:45:40.549Z,13.48
2023-04-20T08:50:42.264Z,13.52
2023-04-20T08:55:48.947Z,13.79
2023-04-20T09:00:38.869Z,13.43
2023-04-20T09:05:38.910Z,13.14
2023-04-20T09:10:38.013Z,13.22
2023-04-20T09:15:46.648Z,13.15
2023-04-20T09:20:48.637Z,13.22
2023-04-20T09:25:48.573Z,13.76
2023-04-20T09:30:45.375Z,13.39
2023-04-20T09:35:46.004Z,13.04
2023-04-20T09:40:45.883Z,12.9
2023-04-20T09:45:45.890Z,12.98
2023-04-20T09:51:10.476Z,13.3
2023-04-20T09:55:43.550Z,13.11
2023-04-20T10:05:31.984Z,12.79
2023-04-20T10:10:28.829Z,12.93
2023-04-20T10:15:28.350Z,12.83
2023-04-20T10:25:27.804Z,12.89
2023-04-20T10:30:28.868Z,12.8
2023-04-20T10:35:25.941Z,12.77
2023-04-20T10:40:28.853Z,12.74
2023-04-20T10:45:23.569Z,12.76
2023-04-20T10:50:23.595Z,12.75
2023-04-20T10:55:22.801Z,12.7
2023-04-20T11:00:24.631Z,12.72
2023-04-20T11:02:11.387Z,12.73
2023-04-20T11:06:44.284Z,12.74
2023-04-20T11:11:42.760Z,12.73
2023-04-20T11:16:49.456Z,12.8
2023-04-20T11:21:44.013Z,12.78
2023-04-20T11:26:42.280Z,12.94
2023-04-20T11:31:41.855Z,13.03
2023-04-20T11:36:51.900Z,13.55
2023-04-20T11:41:43.382Z,13.01
2023-04-20T11:46:40.296Z,12.86
2023-04-20T11:51:39.747Z,12.79
2023-04-20T11:56:39.509Z,12.8
2023-04-20T12:00:59.376Z,12.77
2023-04-20T12:06:01.028Z,12.78
2023-04-20T12:10:58.733Z,12.79
2023-04-20T12:15:57.906Z,12.84
2023-04-20T12:20:58.666Z,12.91
2023-04-20T12:25:55.797Z,12.9
2023-04-20T12:30:55.951Z,12.88
2023-04-20T12:40:55.690Z,12.88
2023-04-20T12:45:55.405Z,12.9
2023-04-20T12:50:53.373Z,12.91
2023-04-20T12:55:57.799Z,12.94
2023-04-20T13:00:39.035Z,12.84
2023-04-20T13:05:38.927Z,12.82
2023-04-20T13:10:37.951Z,12.8
2023-04-20T13:15:43.630Z,12.78
2023-04-20T13:20:47.786Z,12.77
2023-04-20T13:25:46.910Z,12.77
2023-04-20T13:30:47.034Z,12.74
2023-04-20T13:35:47.504Z,12.75
2023-04-20T13:40:46.596Z,12.73
2023-04-20T13:45:45.441Z,12.71
2023-04-20T13:50:48.182Z,12.71
2023-04-20T13:55:52.132Z,12.69
2023-04-20T14:30:29.927Z,12.66
2023-04-20T14:40:29.668Z,12.65
2023-04-20T14:55:27.072Z,12.63
2023-04-20T15:00:26.201Z,12.62
2023-04-20T15:05:31.611Z,12.6
2023-04-20T15:10:25.190Z,12.6
2023-04-20T15:15:31.942Z,12.6
2023-04-20T15:20:25.081Z,12.59
2023-04-20T15:25:25.049Z,12.58
2023-04-20T15:30:23.170Z,12.57
2023-04-20T15:35:22.658Z,12.56
2023-04-20T15:40:22.775Z,12.56
2023-04-20T15:45:21.835Z,12.55
2023-04-20T15:50:20.316Z,12.55
2023-04-20T15:55:19.462Z,12.54
2023-04-20T16:01:25.018Z,12.53
2023-04-20T16:03:12.725Z,12.51
2023-04-20T16:06:43.074Z,12.52
2023-04-20T16:11:39.082Z,12.5
2023-04-20T16:16:39.399Z,12.51
2023-04-20T16:21:38.348Z,12.5
2023-04-20T16:26:39.473Z,12.5
2023-04-20T16:31:48.867Z,12.49
2023-04-20T16:36:46.350Z,12.5
2023-04-20T16:41:46.968Z,12.48
2023-04-20T16:47:02.295Z,12.49
2023-04-20T16:51:45.684Z,12.47
2023-04-20T16:56:45.961Z,12.49
2023-04-20T17:00:57.684Z,12.46
2023-04-20T17:05:56.766Z,12.49
2023-04-20T17:10:56.214Z,12.49
2023-04-20T17:15:56.412Z,12.48
2023-04-20T17:20:55.260Z,12.48
2023-04-20T17:26:08.814Z,12.48
2023-04-20T17:30:54.260Z,12.46
2023-04-20T17:35:53.240Z,12.48
2023-04-20T17:40:54.346Z,12.47
2023-04-20T17:45:50.105Z,12.47
2023-04-20T17:50:50.128Z,12.47
2023-04-20T17:55:49.413Z,12.47
2023-04-20T18:05:47.151Z,12.46
2023-04-20T18:10:45.569Z,12.46
2023-04-20T18:15:45.900Z,12.46
2023-04-20T18:20:43.417Z,12.46
2023-04-20T18:25:43.948Z,12.46
2023-04-20T18:30:44.346Z,12.44
2023-04-20T18:35:31.184Z,12.46
2023-04-20T18:40:31.609Z,12.47
2023-04-20T18:45:30.213Z,12.46
2023-04-20T18:50:29.809Z,12.46
2023-04-20T18:55:27.469Z,12.46
2023-04-20T19:00:27.251Z,12.46
2023-04-20T19:02:14.750Z,12.45
2023-04-20T19:06:48.326Z,12.45
2023-04-20T19:11:48.025Z,12.44
2023-04-20T19:16:47.578Z,12.45
2023-04-20T19:21:47.567Z,12.43
2023-04-20T19:26:46.731Z,12.45
2023-04-20T19:31:48.493Z,12.44
2023-04-20T19:36:53.137Z,12.45
2023-04-20T19:41:44.118Z,12.43
2023-04-20T19:46:47.316Z,12.44
2023-04-20T19:51:43.203Z,12.42
2023-04-20T19:56:43.350Z,12.44
2023-04-20T20:01:04.371Z,12.43
2023-04-20T20:06:02.327Z,12.44
2023-04-20T20:11:01.954Z,12.44
2023-04-20T20:16:01.403Z,12.44
2023-04-20T20:21:01.495Z,12.44
2023-04-20T20:25:58.623Z,12.44
2023-04-20T20:30:58.345Z,12.41
2023-04-20T20:35:58.504Z,12.44
2023-04-20T20:40:57.725Z,12.44
2023-04-20T20:45:56.965Z,12.43
2023-04-20T20:50:56.786Z,12.43
2023-04-20T20:55:55.510Z,12.43
2023-04-20T21:00:43.914Z,12.41
2023-04-20T21:05:40.786Z,12.42
2023-04-20T21:10:40.264Z,12.43
2023-04-20T21:15:39.432Z,12.42
2023-04-20T21:20:39.001Z,12.42
2023-04-20T21:25:38.552Z,12.42
2023-04-20T21:30:37.645Z,12.4
2023-04-20T21:35:38.062Z,12.42
2023-04-20T21:40:39.512Z,12.42
2023-04-20T21:45:46.602Z,12.42
2023-04-20T21:50:45.743Z,12.41
2023-04-20T21:55:46.607Z,12.41
2023-04-20T22:00:48.433Z,12.39
2023-04-20T22:05:46.523Z,12.41
2023-04-20T22:10:45.110Z,12.41
2023-04-20T22:15:46.330Z,12.41
2023-04-20T22:20:43.547Z,12.4
2023-04-20T22:25:43.372Z,12.4
2023-04-20T22:30:45.600Z,12.38
2023-04-20T22:35:41.819Z,12.4
2023-04-20T22:40:30.980Z,12.41
2023-04-20T22:45:48.251Z,12.41
2023-04-20T22:50:34.637Z,12.41
2023-04-20T22:55:28.298Z,12.41
2023-04-20T23:20:24.655Z,12.4
2023-04-20T23:35:23.265Z,12.4
2023-04-20T23:45:20.956Z,12.39
2023-04-20T23:55:18.450Z,12.39
